Time;durP1;ratioP1;P1;durP2;ratioP2;P2;SDS_P1;SDS_P2;PMS_P1;PMS_P2;Temp;Humidity;BMP_temperature;BMP_pressure;BME280_temperature;BME280_humidity;BME280_pressure;Samples;Min_cycle;Max_cycle;Signal;HPM_P1;HPM_P2
2021/11/24 00:00:16;;;;;;;1.50;1.40;;;9.20;85.00;;;;;;5028629;28;20104;-96
2021/11/24 00:02:42;;;;;;;2.90;1.77;;;9.20;85.00;;;;;;5024879;28;20460;-96
2021/11/24 00:05:08;;;;;;;1.70;1.60;;;9.20;85.10;;;;;;5024478;28;20026;-96
2021/11/24 00:07:33;;;;;;;3.03;1.75;;;9.20;85.00;;;;;;5020779;28;20585;-96
2021/11/24 00:09:59;;;;;;;1.73;1.63;;;9.20;85.00;;;;;;5016443;28;20440;-96
2021/11/24 00:12:24;;;;;;;1.90;1.60;;;9.20;85.00;;;;;;5015427;28;20030;-96
2021/11/24 00:14:50;;;;;;;2.05;1.60;;;9.20;84.90;;;;;;5015690;28;20026;-96
2021/11/24 00:17:16;;;;;;;2.60;1.80;;;9.20;84.90;;;;;;5014871;28;20079;-96
2021/11/24 00:19:43;;;;;;;1.55;1.45;;;9.20;85.50;;;;;;5017184;28;20038;-96
2021/11/24 00:22:08;;;;;;;2.00;1.70;;;9.10;84.80;;;;;;5013494;28;20021;-96
2021/11/24 00:24:34;;;;;;;1.60;1.50;;;9.10;85.00;;;;;;5015781;28;20061;-96
2021/11/24 00:26:59;;;;;;;1.65;1.55;;;9.00;84.90;;;;;;5016379;28;20416;-96
2021/11/24 00:29:25;;;;;;;2.13;1.90;;;9.00;84.90;;;;;;5015010;28;20025;-95
2021/11/24 00:31:50;;;;;;;1.88;1.73;;;8.90;85.10;;;;;;5015750;28;20033;-96
2021/11/24 00:34:16;;;;;;;3.55;1.70;;;8.90;85.10;;;;;;5015202;28;20030;-96
2021/11/24 00:36:42;;;;;;;1.92;1.70;;;8.90;85.00;;;;;;5015873;28;20030;-96
2021/11/24 00:39:07;;;;;;;1.70;1.60;;;8.80;85.00;;;;;;5015997;28;20040;-95
2021/11/24 00:41:33;;;;;;;2.08;1.80;;;8.80;85.10;;;;;;5015089;28;20022;-95
2021/11/24 00:43:58;;;;;;;2.15;1.70;;;8.70;85.10;;;;;;5014870;28;20026;-95
2021/11/24 00:46:24;;;;;;;2.90;2.50;;;8.70;85.20;;;;;;5015804;28;20072;-96
2021/11/24 00:48:50;;;;;;;3.42;2.50;;;8.60;85.20;;;;;;5014789;28;20069;-96
2021/11/24 00:51:15;;;;;;;8.77;2.50;;;8.60;85.20;;;;;;5014139;28;20029;-96
2021/11/24 00:53:41;;;;;;;2.83;2.53;;;8.60;85.10;;;;;;5015581;28;20113;-96
2021/11/24 00:56:06;;;;;;;3.20;2.63;;;8.60;85.20;;;;;;5015160;28;20110;-94
2021/11/24 00:58:32;;;;;;;3.20;2.90;;;8.60;85.00;;;;;;5013560;28;20060;-94
2021/11/24 01:00:57;;;;;;;5.07;2.70;;;8.50;85.00;;;;;;5012614;28;20022;-94
2021/11/24 01:03:23;;;;;;;3.78;2.83;;;8.40;85.00;;;;;;5012593;28;20030;-95
2021/11/24 01:05:48;;;;;;;3.03;2.72;;;8.40;85.10;;;;;;5015385;28;20033;-96
2021/11/24 01:08:15;;;;;;;3.13;2.83;;;8.40;85.10;;;;;;5014543;28;20018;-96
2021/11/24 01:10:47;;;;;;;3.45;3.13;;;8.40;85.20;;;;;;5013810;28;20034;-96
2021/11/24 01:13:14;;;;;;;4.00;2.80;;;8.40;85.00;;;;;;5009494;28;20034;-96
2021/11/24 01:15:40;;;;;;;3.45;2.58;;;8.40;84.80;;;;;;5015526;28;20109;-96
2021/11/24 01:18:06;;;;;;;2.80;2.60;;;8.40;84.80;;;;;;5015188;28;20053;-96
2021/11/24 01:20:32;;;;;;;3.33;2.78;;;8.40;84.70;;;;;;5011036;28;20022;-96
2021/11/24 01:22:57;;;;;;;3.50;2.95;;;8.30;84.70;;;;;;5014976;28;20113;-96
2021/11/24 01:25:23;;;;;;;5.00;2.65;;;8.30;84.80;;;;;;5015847;28;20057;-96
2021/11/24 01:27:49;;;;;;;6.57;2.50;;;8.30;84.80;;;;;;5015144;28;20030;-96
2021/11/24 01:30:15;;;;;;;2.80;1.90;;;8.20;85.40;;;;;;5013531;28;20030;-96
2021/11/24 01:32:41;;;;;;;12.93;2.67;;;8.20;84.80;;;;;;5014706;28;20045;-96
2021/11/24 01:35:07;;;;;;;12.50;2.30;;;8.10;84.90;;;;;;5014035;28;20021;-96
2021/11/24 01:37:33;;;;;;;5.80;2.00;;;8.10;85.10;;;;;;5012632;28;20033;-96
2021/11/24 01:40:00;;;;;;;3.75;2.15;;;8.10;85.10;;;;;;5013873;28;20026;-95
2021/11/24 01:42:26;;;;;;;11.18;2.13;;;8.10;85.20;;;;;;5012918;28;20026;-96
2021/11/24 01:44:52;;;;;;;6.72;2.20;;;8.10;85.00;;;;;;5015013;28;20022;-95
2021/11/24 01:47:18;;;;;;;5.10;2.33;;;8.10;85.00;;;;;;5014048;28;20032;-94
2021/11/24 01:49:43;;;;;;;5.97;2.20;;;8.20;85.10;;;;;;5019217;28;20021;-92
2021/11/24 01:52:09;;;;;;;2.97;2.30;;;8.10;85.60;;;;;;5014475;28;20121;-93
2021/11/24 01:54:35;;;;;;;3.55;2.00;;;8.20;85.00;;;;;;5013483;28;20097;-94
2021/11/24 01:57:00;;;;;;;4.10;2.13;;;8.10;84.80;;;;;;5013531;28;20022;-92
2021/11/24 01:59:26;;;;;;;8.30;2.20;;;8.10;84.90;;;;;;5007788;28;20532;-94
2021/11/24 02:01:52;;;;;;;8.77;2.25;;;8.20;85.00;;;;;;5013051;28;20124;-95
2021/11/24 02:04:18;;;;;;;6.38;2.50;;;8.10;84.90;;;;;;5013020;28;20022;-94
2021/11/24 02:06:46;;;;;;;3.10;2.10;;;8.10;84.90;;;;;;5014391;28;20041;-94
2021/11/24 02:09:12;;;;;;;7.28;2.42;;;8.10;85.50;;;;;;5011097;28;20030;-94
2021/11/24 02:11:39;;;;;;;3.72;2.13;;;8.20;84.90;;;;;;5013848;28;20050;-94
2021/11/24 02:14:07;;;;;;;3.83;2.40;;;8.20;84.90;;;;;;5014075;28;20018;-94
2021/11/24 02:16:47;;;;;;;2.58;2.38;;;8.20;84.80;;;;;;5016460;28;20056;-95
2021/11/24 02:19:13;;;;;;;2.50;2.30;;;8.20;84.70;;;;;;5011160;28;20037;-95
2021/11/24 02:21:47;;;;;;;2.40;2.20;;;8.20;84.50;;;;;;5012561;28;20033;-96
2021/11/24 02:24:14;;;;;;;2.63;2.42;;;8.20;84.60;;;;;;5011415;28;20113;-95
2021/11/24 02:26:40;;;;;;;2.50;2.30;;;8.20;84.60;;;;;;5012974;28;20029;-94
2021/11/24 02:29:05;;;;;;;2.50;2.30;;;8.20;84.60;;;;;;5017196;28;20519;-96
2021/11/24 02:31:32;;;;;;;2.78;2.58;;;8.10;84.60;;;;;;5021359;28;20072;-95
2021/11/24 02:33:58;;;;;;;2.80;2.33;;;8.10;84.60;;;;;;5013151;28;20018;-95
2021/11/24 02:36:26;;;;;;;2.47;2.28;;;8.10;84.60;;;;;;5011728;28;20355;-94
2021/11/24 02:38:52;;;;;;;2.38;2.17;;;8.00;84.40;;;;;;5020692;28;20030;-95
2021/11/24 02:41:18;;;;;;;2.85;2.60;;;8.00;84.40;;;;;;5016952;28;20088;-95
2021/11/24 02:43:43;;;;;;;2.70;2.50;;;8.00;84.40;;;;;;5009371;28;20169;-93
2021/11/24 02:46:09;;;;;;;2.60;2.40;;;8.00;84.30;;;;;;5012547;28;20493;-94
2021/11/24 02:48:35;;;;;;;2.50;2.30;;;8.00;84.80;;;;;;5021311;28;20075;-93
2021/11/24 02:51:00;;;;;;;5.50;2.40;;;7.90;84.10;;;;;;5013626;28;20089;-92
2021/11/24 02:53:27;;;;;;;3.72;2.47;;;7.90;84.20;;;;;;5005381;28;20563;-93
2021/11/24 02:55:54;;;;;;;3.00;2.70;;;7.80;84.30;;;;;;5008265;28;20096;-93
2021/11/24 02:58:20;;;;;;;3.17;2.83;;;7.80;84.50;;;;;;5009996;28;20033;-93
2021/11/24 03:00:45;;;;;;;2.70;2.50;;;7.80;84.40;;;;;;5011779;28;20040;-93
2021/11/24 03:03:11;;;;;;;3.08;2.78;;;7.80;84.40;;;;;;5011328;28;20021;-93
2021/11/24 03:05:36;;;;;;;3.20;2.50;;;7.70;84.30;;;;;;5012907;28;20040;-93
2021/11/24 03:08:05;;;;;;;3.05;2.75;;;7.70;84.30;;;;;;5009271;28;20026;-93
2021/11/24 03:10:34;;;;;;;2.88;2.60;;;7.70;84.20;;;;;;5012103;28;20034;-94
2021/11/24 03:13:00;;;;;;;2.90;2.60;;;7.70;84.20;;;;;;5012119;28;20104;-93
2021/11/24 03:15:26;;;;;;;2.72;2.50;;;7.60;84.20;;;;;;5013309;28;20022;-94
2021/11/24 03:17:52;;;;;;;3.00;2.70;;;7.60;84.20;;;;;;5012243;28;20113;-93
2021/11/24 03:20:17;;;;;;;2.90;2.58;;;7.60;84.10;;;;;;5012550;28;20432;-95
2021/11/24 03:22:43;;;;;;;3.17;2.85;;;7.60;84.10;;;;;;5012896;28;20033;-94
2021/11/24 03:25:14;;;;;;;2.72;2.53;;;7.60;83.90;;;;;;5012622;28;20731;-93
2021/11/24 03:27:41;;;;;;;2.50;2.30;;;7.60;83.80;;;;;;5011396;28;20485;-94
2021/11/24 03:30:11;;;;;;;2.60;2.40;;;7.50;83.80;;;;;;5012048;28;20026;-93
2021/11/24 03:32:36;;;;;;;2.80;2.50;;;7.50;84.00;;;;;;5010072;28;20038;-93
2021/11/24 03:35:02;;;;;;;2.60;2.40;;;7.40;84.20;;;;;;5015620;28;20485;-94
2021/11/24 03:37:28;;;;;;;2.65;2.40;;;7.50;84.30;;;;;;5017163;28;20032;-94
2021/11/24 03:39:54;;;;;;;2.60;2.40;;;7.50;84.10;;;;;;5011360;28;20464;-95
2021/11/24 03:42:19;;;;;;;2.30;2.10;;;7.40;84.00;;;;;;5016824;28;20569;-95
2021/11/24 03:44:46;;;;;;;2.10;1.90;;;7.40;84.20;;;;;;5024883;28;20469;-95
2021/11/24 03:47:11;;;;;;;2.40;2.20;;;7.30;84.20;;;;;;5016567;28;20464;-94
2021/11/24 03:49:37;;;;;;;2.63;2.13;;;7.40;84.40;;;;;;5015218;28;20040;-94
2021/11/24 03:52:04;;;;;;;2.30;2.10;;;7.40;84.40;;;;;;5016791;28;20037;-94
2021/11/24 03:54:30;;;;;;;2.20;2.00;;;7.50;84.40;;;;;;5016748;28;20198;-94
2021/11/24 03:56:55;;;;;;;2.65;2.25;;;7.50;84.30;;;;;;5000518;28;20033;-95
2021/11/24 03:59:21;;;;;;;2.38;2.17;;;7.50;84.80;;;;;;5013085;28;20030;-96
2021/11/24 04:01:46;;;;;;;2.30;2.10;;;7.50;84.20;;;;;;5015667;28;20022;-95
2021/11/24 04:04:12;;;;;;;2.20;2.00;;;7.50;84.10;;;;;;5016815;28;20472;-95
2021/11/24 04:06:38;;;;;;;1.95;1.80;;;7.50;84.20;;;;;;5019890;28;20410;-95
2021/11/24 04:09:03;;;;;;;1.92;1.83;;;7.50;84.30;;;;;;5015938;28;20030;-94
2021/11/24 04:11:29;;;;;;;2.85;2.10;;;7.50;84.40;;;;;;5016292;28;20044;-93
2021/11/24 04:13:55;;;;;;;2.40;1.90;;;7.50;84.50;;;;;;5015929;28;20088;-94
2021/11/24 04:16:21;;;;;;;2.03;1.83;;;7.60;84.60;;;;;;5014639;28;20029;-93
2021/11/24 04:18:48;;;;;;;2.10;1.90;;;7.60;84.30;;;;;;5015313;28;20029;-95
2021/11/24 04:21:16;;;;;;;2.15;1.90;;;7.70;84.20;;;;;;5015588;28;20065;-94
2021/11/24 04:23:42;;;;;;;1.92;1.77;;;7.70;84.20;;;;;;5015579;28;20029;-94
2021/11/24 04:26:07;;;;;;;2.60;2.00;;;7.70;84.10;;;;;;5015493;28;20108;-94
2021/11/24 04:28:33;;;;;;;1.80;1.70;;;7.70;84.20;;;;;;5014076;28;20465;-93
2021/11/24 04:30:59;;;;;;;2.85;2.05;;;7.70;84.10;;;;;;5015379;28;20033;-95
2021/11/24 04:33:24;;;;;;;2.50;2.20;;;7.70;84.00;;;;;;5015217;28;20027;-96
2021/11/24 04:35:50;;;;;;;3.97;2.38;;;7.60;83.90;;;;;;5015850;28;20419;-96
2021/11/24 04:38:16;;;;;;;2.97;2.47;;;7.50;83.90;;;;;;5015887;28;20018;-96
2021/11/24 04:40:42;;;;;;;2.70;2.22;;;7.50;84.00;;;;;;5016319;28;20048;-95
2021/11/24 04:43:10;;;;;;;3.63;2.50;;;7.50;84.10;;;;;;5029628;28;20109;-96
2021/11/24 04:45:36;;;;;;;6.55;2.47;;;7.50;84.00;;;;;;5012771;28;20029;-95
2021/11/24 04:48:02;;;;;;;3.70;2.42;;;7.50;84.00;;;;;;5014400;28;20519;-96
2021/11/24 04:50:27;;;;;;;4.07;2.80;;;7.40;84.10;;;;;;5016146;28;20376;-96
2021/11/24 04:52:53;;;;;;;6.65;3.03;;;7.40;84.20;;;;;;5020135;28;20030;-96
2021/11/24 04:55:19;;;;;;;4.10;2.85;;;7.40;84.10;;;;;;5029953;28;20022;-96
2021/11/24 04:57:44;;;;;;;4.68;2.35;;;7.40;83.90;;;;;;5025481;28;20034;-96
2021/11/24 05:00:17;;;;;;;6.97;2.97;;;7.50;83.90;;;;;;5028470;28;20084;-96
2021/11/24 05:02:42;;;;;;;;;;;7.50;83.80;;;;;;5026580;28;20026;-96
2021/11/24 05:05:08;;;;;;;10.05;3.40;;;7.40;83.80;;;;;;5033172;28;20548;-96
2021/11/24 05:07:34;;;;;;;7.15;2.95;;;7.40;83.90;;;;;;5023477;28;20026;-96
2021/11/24 05:10:00;;;;;;;3.85;3.17;;;7.40;83.90;;;;;;5016337;28;20040;-96
2021/11/24 05:12:25;;;;;;;14.07;3.40;;;7.40;84.00;;;;;;5014977;28;20038;-94
2021/11/24 05:14:52;;;;;;;11.95;2.80;;;7.40;83.90;;;;;;5019440;28;20022;-94
2021/11/24 05:17:21;;;;;;;3.88;2.55;;;7.40;83.90;;;;;;5015502;28;20488;-95
2021/11/24 05:19:48;;;;;;;13.55;2.97;;;7.40;84.00;;;;;;5016439;28;20072;-96
2021/11/24 05:22:14;;;;;;;3.65;2.70;;;7.40;84.00;;;;;;5015175;28;20022;-95
2021/11/24 05:24:40;;;;;;;19.00;3.70;;;7.40;84.10;;;;;;5011845;28;20030;-94
2021/11/24 05:27:06;;;;;;;5.80;3.00;;;7.40;84.30;;;;;;5014893;28;20033;-94
2021/11/24 05:29:33;;;;;;;6.45;2.95;;;7.40;84.30;;;;;;5015456;28;20033;-96
2021/11/24 05:31:59;;;;;;;6.88;3.03;;;7.40;84.40;;;;;;5014105;28;20112;-95
2021/11/24 05:34:24;;;;;;;11.05;2.70;;;7.40;84.30;;;;;;5012481;28;20026;-95
2021/11/24 05:36:50;;;;;;;7.32;2.60;;;7.40;84.20;;;;;;5011786;28;20129;-92
2021/11/24 05:39:16;;;;;;;5.22;2.90;;;7.40;84.20;;;;;;5014142;28;20026;-93
2021/11/24 05:41:42;;;;;;;4.60;2.78;;;7.40;84.30;;;;;;5012219;28;20026;-94
2021/11/24 05:46:50;;;;;;;5.03;3.20;;;7.40;84.20;;;;;;5014267;28;20041;-94
2021/11/24 05:49:17;;;;;;;6.85;2.78;;;7.40;84.20;;;;;;5012580;28;20033;-93
2021/11/24 05:51:42;;;;;;;5.03;2.33;;;7.50;84.20;;;;;;5013198;28;20034;-94
2021/11/24 05:54:08;;;;;;;4.40;2.60;;;7.50;84.20;;;;;;5011351;28;20105;-92
2021/11/24 05:56:36;;;;;;;4.95;2.70;;;7.40;84.10;;;;;;5011896;28;20416;-94
2021/11/24 05:59:03;;;;;;;5.07;2.40;;;7.40;84.30;;;;;;5008038;28;20015;-93
2021/11/24 06:01:29;;;;;;;4.38;2.80;;;7.40;84.30;;;;;;5008094;28;20768;-93
2021/11/24 06:03:55;;;;;;;6.68;2.42;;;7.40;84.40;;;;;;5012246;28;20120;-84
2021/11/24 06:06:21;;;;;;;5.72;2.60;;;7.40;84.40;;;;;;5010343;28;20022;-86
2021/11/24 06:08:47;;;;;;;4.55;2.65;;;7.40;84.60;;;;;;5011318;28;20037;-85
2021/11/24 06:11:12;;;;;;;2.78;2.47;;;7.50;84.60;;;;;;5010841;28;20072;-87
2021/11/24 06:13:38;;;;;;;2.55;2.35;;;7.50;84.50;;;;;;5010841;28;20097;-80
2021/11/24 06:16:04;;;;;;;3.88;2.70;;;7.50;84.40;;;;;;5010177;28;20037;-80
2021/11/24 06:18:29;;;;;;;4.30;2.78;;;7.60;84.40;;;;;;5008755;28;20029;-79
2021/11/24 06:20:55;;;;;;;2.70;2.38;;;7.60;84.20;;;;;;5009975;28;20030;-79
2021/11/24 06:23:20;;;;;;;2.63;2.35;;;7.70;84.20;;;;;;5010213;28;20665;-79
2021/11/24 06:25:46;;;;;;;2.90;2.60;;;7.70;84.20;;;;;;5009416;28;20377;-80
2021/11/24 06:28:12;;;;;;;3.10;2.65;;;7.70;84.20;;;;;;5009478;28;20361;-80
2021/11/24 06:30:38;;;;;;;3.38;2.70;;;7.70;84.20;;;;;;5010297;28;20101;-80
2021/11/24 06:33:04;;;;;;;3.50;2.78;;;7.70;84.20;;;;;;5009663;28;20121;-80
2021/11/24 06:35:30;;;;;;;2.95;2.60;;;7.70;84.10;;;;;;5008017;28;20603;-80
2021/11/24 06:37:55;;;;;;;3.05;2.58;;;7.70;84.10;;;;;;5009243;28;20033;-78
2021/11/24 06:40:21;;;;;;;3.00;2.67;;;7.80;84.20;;;;;;5008239;28;20013;-78
2021/11/24 06:42:47;;;;;;;3.10;2.55;;;7.70;84.10;;;;;;5012163;28;20116;-78
2021/11/24 06:45:14;;;;;;;3.35;2.83;;;7.80;84.20;;;;;;5011964;28;20075;-79
2021/11/24 06:47:40;;;;;;;3.70;2.95;;;7.80;84.20;;;;;;5013449;28;20698;-78
2021/11/24 06:50:08;;;;;;;2.38;2.17;;;7.70;84.20;;;;;;5009997;28;20068;-79
2021/11/24 06:52:33;;;;;;;3.10;2.70;;;7.80;84.30;;;;;;5007235;28;20080;-79
2021/11/24 06:54:59;;;;;;;3.72;2.40;;;7.80;84.40;;;;;;5007343;28;20021;-79
2021/11/24 06:57:25;;;;;;;2.83;2.50;;;7.80;84.50;;;;;;5007931;28;20042;-81
2021/11/24 06:59:50;;;;;;;3.33;2.50;;;7.90;84.50;;;;;;5008541;28;20026;-84
2021/11/24 07:02:16;;;;;;;3.00;2.33;;;7.90;84.40;;;;;;5006147;28;20026;-82
2021/11/24 07:04:41;;;;;;;2.80;2.50;;;7.90;84.30;;;;;;5010521;28;20037;-83
2021/11/24 07:07:07;;;;;;;3.00;2.35;;;7.90;84.20;;;;;;5009091;28;20042;-79
2021/11/24 07:09:32;;;;;;;3.20;2.63;;;7.90;84.30;;;;;;5008646;28;20109;-79
2021/11/24 07:11:58;;;;;;;2.88;2.55;;;7.90;84.40;;;;;;5009369;28;20084;-80
2021/11/24 07:14:24;;;;;;;3.33;2.65;;;7.90;84.40;;;;;;5006672;28;20029;-80
2021/11/24 07:16:49;;;;;;;2.83;2.28;;;8.00;84.50;;;;;;5009059;28;20455;-80
2021/11/24 07:19:16;;;;;;;3.50;2.58;;;8.00;84.50;;;;;;5008698;28;20038;-80
2021/11/24 07:21:47;;;;;;;3.45;2.70;;;8.00;84.60;;;;;;5007991;28;20026;-79
2021/11/24 07:24:14;;;;;;;2.85;2.30;;;8.00;84.60;;;;;;5009549;28;20026;-79
2021/11/24 07:26:39;;;;;;;3.20;2.30;;;8.00;84.60;;;;;;5010062;28;20030;-79
2021/11/24 07:29:05;;;;;;;4.07;2.40;;;8.00;84.60;;;;;;5009323;28;20018;-80
2021/11/24 07:31:30;;;;;;;3.22;2.28;;;8.00;84.70;;;;;;5010225;28;20041;-79
2021/11/24 07:33:56;;;;;;;4.22;2.67;;;8.00;84.80;;;;;;5009854;28;20026;-79
2021/11/24 07:36:21;;;;;;;3.15;2.60;;;8.00;84.80;;;;;;5009748;28;20118;-79
2021/11/24 07:38:47;;;;;;;3.35;2.33;;;8.10;84.80;;;;;;5008280;28;20413;-79
2021/11/24 07:41:13;;;;;;;3.72;2.42;;;8.10;84.80;;;;;;5009323;28;20041;-79
2021/11/24 07:43:38;;;;;;;4.07;2.90;;;8.10;84.70;;;;;;5008551;28;20029;-79
2021/11/24 07:46:04;;;;;;;4.32;3.10;;;8.10;84.60;;;;;;5008435;28;20031;-79
2021/11/24 07:48:29;;;;;;;3.22;2.63;;;8.10;84.60;;;;;;5008867;28;20030;-79
2021/11/24 07:50:55;;;;;;;4.03;2.55;;;8.10;84.70;;;;;;5006878;28;20038;-79
2021/11/24 07:53:20;;;;;;;4.95;2.90;;;8.10;85.40;;;;;;5007622;28;20026;-79
2021/11/24 07:55:46;;;;;;;4.55;2.90;;;8.10;84.80;;;;;;5006613;28;20408;-79
2021/11/24 07:58:13;;;;;;;5.15;2.90;;;8.10;84.70;;;;;;5008726;28;20129;-95
2021/11/24 08:00:39;;;;;;;4.72;3.00;;;8.10;84.80;;;;;;5009903;28;20480;-79
2021/11/24 08:03:05;;;;;;;4.47;2.63;;;8.10;84.90;;;;;;5006939;28;20018;-79
2021/11/24 08:05:30;;;;;;;4.43;3.08;;;8.10;84.90;;;;;;5009396;28;20613;-79
2021/11/24 08:07:56;;;;;;;4.55;2.95;;;8.10;85.00;;;;;;5006319;28;20025;-80
2021/11/24 08:10:23;;;;;;;4.25;2.75;;;8.20;85.00;;;;;;5007840;28;20201;-79
2021/11/24 08:12:49;;;;;;;3.40;2.70;;;8.20;84.90;;;;;;5008441;28;20042;-79
2021/11/24 08:15:14;;;;;;;4.57;2.90;;;8.10;84.70;;;;;;5008502;28;20084;-80
2021/11/24 08:17:40;;;;;;;6.18;3.08;;;8.10;84.80;;;;;;5007068;28;20030;-79
2021/11/24 08:20:07;;;;;;;5.32;3.20;;;8.10;84.90;;;;;;5023276;28;20484;-79
2021/11/24 08:22:33;;;;;;;5.25;3.25;;;8.10;85.00;;;;;;5011272;28;20033;-79
2021/11/24 08:24:59;;;;;;;4.78;3.08;;;8.10;85.00;;;;;;5012128;28;20100;-79
2021/11/24 08:27:25;;;;;;;4.22;3.05;;;8.10;85.10;;;;;;5012858;28;20468;-79
2021/11/24 08:29:51;;;;;;;4.65;2.80;;;8.20;85.20;;;;;;5012521;28;20025;-79
2021/11/24 08:32:16;;;;;;;5.05;3.40;;;8.20;85.10;;;;;;5012714;28;20397;-79
2021/11/24 08:34:42;;;;;;;5.68;3.90;;;8.30;85.00;;;;;;5012698;28;20044;-79
2021/11/24 08:37:08;;;;;;;5.05;3.25;;;8.30;84.90;;;;;;5011433;28;20029;-79
2021/11/24 08:39:33;;;;;;;5.28;3.60;;;8.30;84.90;;;;;;5010265;28;20483;-79
2021/11/24 08:41:59;;;;;;;5.80;3.47;;;8.40;85.00;;;;;;5012494;28;20030;-79
2021/11/24 08:44:24;;;;;;;3.25;2.55;;;8.40;85.00;;;;;;5011395;28;20014;-78
2021/11/24 08:46:50;;;;;;;9.25;5.57;;;8.40;85.00;;;;;;5012112;28;20172;-79
2021/11/24 08:49:16;;;;;;;8.38;4.28;;;8.30;85.80;;;;;;5010744;28;20022;-79
2021/11/24 08:51:42;;;;;;;7.72;4.57;;;8.30;85.40;;;;;;5011868;28;20042;-79
2021/11/24 08:54:12;;;;;;;5.50;3.42;;;8.30;85.60;;;;;;5008930;28;20029;-79
2021/11/24 08:56:39;;;;;;;6.22;3.97;;;8.30;85.60;;;;;;5010928;28;20497;-79
2021/11/24 08:59:06;;;;;;;6.72;4.20;;;8.30;85.70;;;;;;5011947;28;20034;-79
2021/11/24 09:01:36;;;;;;;6.18;3.83;;;8.30;85.70;;;;;;5010695;28;20084;-79
2021/11/24 09:04:02;;;;;;;6.78;4.30;;;8.30;85.80;;;;;;5011753;28;20018;-79
2021/11/24 09:06:28;;;;;;;7.10;4.18;;;8.30;85.90;;;;;;5017940;28;20030;-79
2021/11/24 09:08:54;;;;;;;5.47;3.63;;;8.40;86.00;;;;;;5018328;28;20033;-78
2021/11/24 09:11:19;;;;;;;7.78;4.20;;;8.50;86.00;;;;;;5016387;28;20064;-83
2021/11/24 09:13:45;;;;;;;5.65;4.15;;;8.50;85.80;;;;;;5010725;28;20048;-81
2021/11/24 09:16:11;;;;;;;6.25;4.10;;;8.50;85.70;;;;;;5020578;28;20464;-79
2021/11/24 09:18:38;;;;;;;7.47;5.35;;;8.50;85.70;;;;;;5017803;28;20037;-79
2021/11/24 09:21:04;;;;;;;7.07;4.95;;;8.60;85.70;;;;;;5019895;28;20034;-79
2021/11/24 09:23:30;;;;;;;6.38;4.15;;;8.50;85.80;;;;;;5015052;28;20080;-82
2021/11/24 09:26:16;;;;;;;8.50;4.47;;;8.60;85.80;;;;;;5010830;28;20087;-81
2021/11/24 09:28:42;;;;;;;6.05;4.20;;;8.60;85.70;;;;;;5010773;28;20403;-84
2021/11/24 09:31:08;;;;;;;5.72;4.40;;;8.60;85.60;;;;;;5009272;28;20054;-84
2021/11/24 09:33:40;;;;;;;7.20;4.70;;;8.60;85.70;;;;;;5009291;28;20084;-83
2021/11/24 09:36:07;;;;;;;4.97;3.15;;;8.70;85.70;;;;;;5007653;28;20416;-83
2021/11/24 09:38:32;;;;;;;7.63;5.28;;;8.70;85.60;;;;;;5009387;28;20026;-82
2021/11/24 09:41:05;;;;;;;7.75;5.22;;;8.70;85.70;;;;;;5010419;28;20391;-84
2021/11/24 09:43:35;;;;;;;8.82;6.10;;;8.60;85.70;;;;;;5007553;28;20026;-78
2021/11/24 09:46:03;;;;;;;11.45;7.50;;;8.60;86.00;;;;;;5007660;28;20068;-78
2021/11/24 09:48:29;;;;;;;10.23;6.75;;;8.60;86.70;;;;;;5009452;28;20054;-78
2021/11/24 09:50:56;;;;;;;10.15;6.22;;;8.60;86.30;;;;;;5009397;28;20101;-78
2021/11/24 09:53:24;;;;;;;8.23;6.13;;;8.50;86.40;;;;;;5008684;28;20465;-79
2021/11/24 09:55:52;;;;;;;9.45;6.78;;;8.60;86.50;;;;;;5007757;28;20500;-80
2021/11/24 09:58:18;;;;;;;10.75;6.97;;;8.50;86.50;;;;;;5001558;28;20034;-79
2021/11/24 10:00:45;;;;;;;10.25;6.53;;;8.60;86.60;;;;;;5005539;28;20603;-79
2021/11/24 10:03:13;;;;;;;8.93;6.70;;;8.60;86.70;;;;;;5006521;28;20058;-79
2021/11/24 10:05:39;;;;;;;8.18;5.95;;;8.60;86.60;;;;;;5006324;28;20029;-79
2021/11/24 10:08:05;;;;;;;6.35;4.32;;;8.70;86.50;;;;;;5005430;28;20032;-78
2021/11/24 10:10:31;;;;;;;8.00;6.05;;;8.70;86.40;;;;;;5006475;28;20882;-82
2021/11/24 10:12:57;;;;;;;5.90;4.55;;;8.70;86.30;;;;;;5003788;28;20045;-81
2021/11/24 10:15:42;;;;;;;8.30;6.35;;;8.70;86.30;;;;;;5007702;28;20018;-82
2021/11/24 10:18:21;;;;;;;5.88;4.80;;;8.70;86.30;;;;;;5003978;28;20153;-82
2021/11/24 10:21:09;;;;;;;10.05;7.68;;;8.70;86.30;;;;;;5005129;28;20417;-81
2021/11/24 10:23:39;;;;;;;10.23;6.68;;;8.70;86.30;;;;;;5007037;28;20022;-82
2021/11/24 10:26:33;;;;;;;14.90;9.90;;;8.70;86.40;;;;;;5008605;28;20030;-81
2021/11/24 10:29:12;;;;;;;12.23;8.95;;;8.70;86.40;;;;;;5006515;28;20022;-82
2021/11/24 10:31:44;;;;;;;12.25;8.10;;;8.60;86.40;;;;;;5007194;28;20800;-81
2021/11/24 10:34:24;;;;;;;9.70;6.05;;;8.60;86.40;;;;;;5006208;28;20026;-81
2021/11/24 10:39:40;;;;;;;5.10;3.63;;;8.60;86.40;;;;;;5005068;28;20025;-81
2021/11/24 10:42:22;;;;;;;3.78;2.90;;;8.70;86.30;;;;;;5005329;28;20084;-81
2021/11/24 10:44:51;;;;;;;5.47;3.55;;;8.80;86.30;;;;;;5004434;28;20384;-81
2021/11/24 10:47:17;;;;;;;5.35;3.40;;;8.80;86.00;;;;;;5007242;28;20055;-81
2021/11/24 10:49:50;;;;;;;3.85;2.80;;;8.80;85.90;;;;;;5004594;28;20025;-81
2021/11/24 10:52:26;;;;;;;3.28;2.10;;;8.90;85.90;;;;;;5004417;28;20057;-82
2021/11/24 10:55:13;;;;;;;2.72;1.98;;;9.00;85.60;;;;;;5005107;28;20032;-81
2021/11/24 10:57:42;;;;;;;1.73;1.63;;;9.00;85.40;;;;;;5007132;28;20029;-82
2021/11/24 11:00:08;;;;;;;3.15;2.55;;;9.10;85.10;;;;;;5001956;28;20481;-81
2021/11/24 11:02:37;;;;;;;2.78;2.03;;;9.10;85.00;;;;;;5005259;28;20652;-80
2021/11/24 11:05:17;;;;;;;3.42;2.10;;;9.10;84.70;;;;;;5005569;28;20495;-81
2021/11/24 11:07:49;;;;;;;2.33;1.70;;;9.20;84.50;;;;;;5005154;28;20038;-81
2021/11/24 11:10:18;;;;;;;1.67;1.48;;;9.20;84.30;;;;;;5001578;28;20552;-81
2021/11/24 11:12:47;;;;;;;2.47;1.35;;;9.20;84.00;;;;;;5003679;28;20116;-82
2021/11/24 11:15:20;;;;;;;1.98;1.30;;;9.30;84.00;;;;;;5005160;28;20037;-81
2021/11/24 11:17:50;;;;;;;1.48;0.95;;;9.40;83.90;;;;;;5006631;28;20029;-82
2021/11/24 11:20:16;;;;;;;1.30;1.20;;;9.60;83.70;;;;;;5007030;28;20033;-82
2021/11/24 11:22:42;;;;;;;2.25;1.58;;;9.50;83.00;;;;;;5006240;28;20026;-82
2021/11/24 11:25:08;;;;;;;1.45;1.35;;;9.50;82.50;;;;;;5005805;28;20037;-81
2021/11/24 11:27:34;;;;;;;2.15;1.67;;;9.50;82.40;;;;;;5007538;28;20370;-81
2021/11/24 11:30:00;;;;;;;2.10;1.70;;;9.40;81.60;;;;;;5007571;28;20061;-82
2021/11/24 11:32:28;;;;;;;1.85;1.50;;;9.50;82.00;;;;;;5007343;28;20034;-82
2021/11/24 11:34:53;;;;;;;1.40;1.30;;;9.50;82.30;;;;;;5007836;28;20034;-82
2021/11/24 11:37:20;;;;;;;2.00;1.30;;;9.60;81.80;;;;;;5001311;28;20033;-82
2021/11/24 11:39:45;;;;;;;1.70;1.20;;;9.70;81.70;;;;;;5005839;28;20035;-80
2021/11/24 11:42:15;;;;;;;1.98;1.50;;;9.70;81.60;;;;;;5006108;28;20386;-83
2021/11/24 11:44:41;;;;;;;2.13;1.67;;;9.70;81.30;;;;;;5005591;28;20159;-82
2021/11/24 11:47:06;;;;;;;1.50;1.38;;;9.70;81.40;;;;;;5006561;28;20087;-82
2021/11/24 11:49:32;;;;;;;2.10;1.50;;;9.70;81.50;;;;;;5006032;28;20026;-81
2021/11/24 11:52:09;;;;;;;2.42;1.52;;;9.70;81.20;;;;;;5006232;28;20134;-82
2021/11/24 11:54:35;;;;;;;1.60;1.40;;;9.70;81.30;;;;;;5005976;28;20516;-81
2021/11/24 11:57:04;;;;;;;1.23;1.13;;;9.70;81.10;;;;;;5009883;28;20032;-81
2021/11/24 11:59:35;;;;;;;1.10;1.00;;;9.60;81.00;;;;;;5011309;28;20036;-82
2021/11/24 12:02:04;;;;;;;1.48;1.10;;;9.60;81.20;;;;;;5009441;28;20105;-81
2021/11/24 12:04:45;;;;;;;1.13;1.02;;;9.60;81.00;;;;;;5017316;28;20073;-80
2021/11/24 12:07:16;;;;;;;1.00;0.90;;;9.60;81.10;;;;;;5009632;28;20492;-81
2021/11/24 12:09:46;;;;;;;1.40;1.30;;;9.70;81.10;;;;;;5009050;28;20037;-80
2021/11/24 12:12:35;;;;;;;1.60;1.20;;;9.70;80.90;;;;;;5004190;28;20041;-80
2021/11/24 12:15:06;;;;;;;1.83;1.35;;;9.70;80.90;;;;;;5009265;28;20510;-80
2021/11/24 12:17:37;;;;;;;1.20;1.10;;;9.70;80.70;;;;;;5008090;28;20041;-80
2021/11/24 12:20:16;;;;;;;1.00;1.00;;;9.80;80.80;;;;;;5010574;28;20079;-79
2021/11/24 12:22:51;;;;;;;2.03;1.30;;;9.80;80.70;;;;;;5010984;28;20026;-81
2021/11/24 12:25:19;;;;;;;2.08;1.20;;;9.70;80.30;;;;;;5009126;28;20049;-80
2021/11/24 12:33:14;;;;;;;1.60;1.15;;;9.80;80.50;;;;;;5010554;28;20049;-81
2021/11/24 12:38:33;;;;;;;2.23;1.10;;;9.90;80.40;;;;;;5572774;22;20065;-83
2021/11/24 12:41:05;;;;;;;1.40;1.30;;;9.90;80.40;;;;;;4990400;28;20033;-83
2021/11/24 12:43:34;;;;;;;2.63;1.50;;;9.90;80.20;;;;;;4991049;28;20181;-82
2021/11/24 12:46:11;;;;;;;1.27;1.17;;;9.80;79.70;;;;;;4994983;28;20061;-83
2021/11/24 12:49:00;;;;;;;1.92;1.38;;;9.80;79.80;;;;;;4992174;28;20041;-85
2021/11/24 12:51:31;;;;;;;1.27;1.17;;;9.80;79.90;;;;;;4995232;28;20034;-94
2021/11/24 12:54:03;;;;;;;1.88;1.27;;;9.90;79.90;;;;;;4997392;28;20030;-89
2021/11/24 12:56:33;;;;;;;1.98;1.20;;;9.90;79.90;;;;;;4990670;28;20054;-90
2021/11/24 12:59:02;;;;;;;1.70;1.05;;;9.90;79.80;;;;;;4993306;28;20033;-89
2021/11/24 13:01:50;;;;;;;1.52;1.20;;;9.90;79.80;;;;;;4997715;28;20503;-87
2021/11/24 13:04:19;;;;;;;1.05;1.00;;;10.00;79.70;;;;;;4999788;28;20027;-86
2021/11/24 13:06:53;;;;;;;1.25;1.10;;;10.00;79.80;;;;;;4991698;28;20030;-86
2021/11/24 13:09:27;;;;;;;0.90;0.90;;;10.00;79.70;;;;;;4989612;28;20041;-86
2021/11/24 13:12:02;;;;;;;1.30;1.20;;;10.00;79.70;;;;;;4988973;28;20046;-85